Time;durP1;ratioP1;P1;durP2;ratioP2;P2;SDS_P1;SDS_P2;PMS_P1;PMS_P2;Temp;Humidity;BMP_temperature;BMP_pressure;BME280_temperature;BME280_humidity;BME280_pressure;Samples;Min_cycle;Max_cycle;Signal;HPM_P1;HPM_P2
2021/03/25 00:01:47;;;;;;;118.63;51.58;;;5.90;99.90;;;;;;5094017;28;20068;-68
2021/03/25 00:04:13;;;;;;;123.60;56.53;;;5.80;99.90;;;;;;5094288;28;20117;-68
2021/03/25 00:06:42;;;;;;;121.50;55.92;;;5.70;99.90;;;;;;5092787;28;20024;-68
2021/03/25 00:09:15;;;;;;;116.95;53.13;;;5.70;99.90;;;;;;5094254;28;20462;-68
2021/03/25 00:11:41;;;;;;;128.40;54.28;;;5.60;99.90;;;;;;5075697;28;20028;-68
2021/03/25 00:14:06;;;;;;;131.50;56.00;;;5.50;99.90;;;;;;5093729;28;20489;-68
2021/03/25 00:16:32;;;;;;;124.60;55.70;;;5.50;99.90;;;;;;5093863;28;20016;-68
2021/03/25 00:18:57;;;;;;;130.88;57.38;;;5.40;99.90;;;;;;5093818;28;20117;-68
2021/03/25 00:21:23;;;;;;;127.40;56.97;;;5.40;99.90;;;;;;5093525;28;20039;-68
2021/03/25 00:23:48;;;;;;;127.70;55.47;;;5.40;99.90;;;;;;5093505;28;20017;-68
2021/03/25 00:26:14;;;;;;;133.68;58.08;;;5.40;99.90;;;;;;5093754;28;20461;-68
2021/03/25 00:28:40;;;;;;;129.10;57.92;;;5.30;99.90;;;;;;5094021;28;20020;-68
2021/03/25 00:31:05;;;;;;;131.68;57.63;;;5.40;99.90;;;;;;5093681;28;20350;-67
2021/03/25 00:33:31;;;;;;;137.90;57.33;;;5.30;99.90;;;;;;5092515;28;20032;-68
2021/03/25 00:35:56;;;;;;;134.27;57.22;;;5.30;99.90;;;;;;5093303;28;20028;-68
2021/03/25 00:38:22;;;;;;;131.10;55.47;;;5.20;99.90;;;;;;5093648;28;20024;-68
2021/03/25 00:40:50;;;;;;;141.13;59.00;;;5.20;99.90;;;;;;5093882;28;20036;-68
2021/03/25 00:43:20;;;;;;;133.77;57.78;;;5.10;99.90;;;;;;5093868;28;20449;-68
2021/03/25 00:45:47;;;;;;;130.27;54.58;;;5.00;99.90;;;;;;5093578;28;20399;-68
2021/03/25 00:48:15;;;;;;;127.75;53.58;;;5.00;99.90;;;;;;5092048;28;20028;-68
2021/03/25 00:50:44;;;;;;;125.78;55.22;;;4.90;99.90;;;;;;5093563;28;20035;-68
2021/03/25 00:53:13;;;;;;;137.63;59.10;;;4.80;99.90;;;;;;5093807;28;20031;-68
2021/03/25 00:55:39;;;;;;;136.68;57.65;;;4.80;99.90;;;;;;5091941;28;20028;-67
2021/03/25 00:58:04;;;;;;;132.25;57.65;;;4.70;99.90;;;;;;5093760;28;20524;-68
2021/03/25 01:00:35;;;;;;;145.77;61.78;;;4.70;99.90;;;;;;5093450;28;20024;-68
2021/03/25 01:03:01;;;;;;;132.35;58.28;;;4.70;99.90;;;;;;5097550;28;20107;-68
2021/03/25 01:05:29;;;;;;;134.02;57.70;;;4.70;99.90;;;;;;5095982;28;20112;-68
2021/03/25 01:07:55;;;;;;;139.02;57.42;;;4.60;99.90;;;;;;5097117;28;20036;-68
2021/03/25 01:10:33;;;;;;;139.40;59.65;;;4.50;99.90;;;;;;5096846;28;20028;-67
2021/03/25 01:13:00;;;;;;;137.05;58.90;;;4.50;99.90;;;;;;5095908;28;20036;-68
2021/03/25 01:15:27;;;;;;;142.57;58.75;;;4.50;99.90;;;;;;5096492;28;20469;-68
2021/03/25 01:17:55;;;;;;;134.63;59.17;;;4.40;99.90;;;;;;5097261;28;20020;-68
2021/03/25 01:20:26;;;;;;;144.68;60.78;;;4.30;99.90;;;;;;5096962;28;20024;-68
2021/03/25 01:22:52;;;;;;;143.57;61.85;;;4.30;99.90;;;;;;5096905;28;20071;-67
2021/03/25 01:25:19;;;;;;;143.65;61.22;;;4.30;99.90;;;;;;5097120;28;20456;-67
2021/03/25 01:27:44;;;;;;;145.98;61.35;;;4.30;99.90;;;;;;5097100;28;20094;-67
2021/03/25 01:30:11;;;;;;;160.77;61.75;;;4.40;99.90;;;;;;5095618;28;20032;-67
2021/03/25 01:32:36;;;;;;;149.95;59.67;;;4.40;99.90;;;;;;5096697;28;20158;-67
2021/03/25 01:35:18;;;;;;;138.60;58.38;;;4.40;99.90;;;;;;5095043;28;20107;-67
2021/03/25 01:37:46;;;;;;;143.20;59.00;;;4.30;99.90;;;;;;5095423;28;20024;-67
2021/03/25 01:40:25;;;;;;;143.48;61.63;;;4.20;99.90;;;;;;5096868;28;20020;-67
2021/03/25 01:43:06;;;;;;;130.80;55.55;;;4.20;99.90;;;;;;5095098;28;20034;-67
2021/03/25 01:48:10;;;;;;;137.35;58.85;;;4.10;99.90;;;;;;5071672;28;20353;-67
2021/03/25 01:50:36;;;;;;;136.85;59.47;;;3.90;99.90;;;;;;5071156;28;20032;-67
2021/03/25 01:53:41;;;;;;;149.30;63.13;;;3.90;99.90;;;;;;5070768;28;20021;-67
2021/03/25 01:56:35;;;;;;;153.55;61.08;;;3.90;99.90;;;;;;5070694;28;20032;-67
2021/03/25 01:59:34;;;;;;;147.85;61.35;;;4.00;99.90;;;;;;5070615;28;20025;-67
2021/03/25 02:02:16;;;;;;;153.13;63.35;;;3.90;99.90;;;;;;5071123;28;20033;-67
2021/03/25 02:08:17;;;;;;;158.30;61.38;;;3.90;99.90;;;;;;5111541;27;20916;-67
2021/03/25 02:10:58;;;;;;;147.50;58.53;;;3.90;99.90;;;;;;5111448;28;20081;-67
2021/03/25 02:13:52;;;;;;;146.25;58.22;;;3.90;99.90;;;;;;5111324;28;20107;-67
2021/03/25 02:16:24;;;;;;;143.30;58.25;;;3.80;99.90;;;;;;5111160;28;20020;-67
2021/03/25 02:19:07;;;;;;;147.75;59.13;;;3.80;99.90;;;;;;5111881;28;20038;-68
2021/03/25 02:22:01;;;;;;;150.68;59.50;;;3.80;99.90;;;;;;5110309;28;20034;-67
2021/03/25 02:24:52;;;;;;;146.10;57.63;;;3.80;99.90;;;;;;5111106;28;20028;-67
2021/03/25 02:27:58;;;;;;;144.27;57.45;;;3.80;99.90;;;;;;5111224;28;20024;-67
2021/03/25 02:30:46;;;;;;;145.48;59.42;;;3.70;99.90;;;;;;5110882;28;20089;-65
2021/03/25 02:33:17;;;;;;;141.90;56.90;;;3.70;99.90;;;;;;5109704;28;20016;-67
2021/03/25 02:35:53;;;;;;;146.40;59.35;;;3.70;99.90;;;;;;5110044;28;20059;-68
2021/03/25 02:38:28;;;;;;;136.68;57.67;;;3.80;99.90;;;;;;5092603;28;20027;-68
2021/03/25 02:41:06;;;;;;;128.68;55.88;;;3.70;99.90;;;;;;5111376;28;20119;-67
2021/03/25 02:43:53;;;;;;;146.15;57.83;;;3.70;99.90;;;;;;5111104;28;20027;-68
2021/03/25 02:46:23;;;;;;;138.98;55.45;;;3.60;99.90;;;;;;5110213;28;20111;-68
2021/03/25 02:48:52;;;;;;;143.48;57.20;;;3.60;99.90;;;;;;5110707;28;20012;-65
2021/03/25 02:51:27;;;;;;;140.07;58.83;;;3.60;99.90;;;;;;5110210;28;20020;-67
2021/03/25 02:53:53;;;;;;;140.05;59.35;;;3.50;99.90;;;;;;5109884;28;20016;-67
2021/03/25 02:56:25;;;;;;;135.63;57.40;;;3.50;99.90;;;;;;5111058;28;20080;-68
2021/03/25 02:58:58;;;;;;;137.57;57.65;;;3.50;99.90;;;;;;5111082;28;20027;-66
2021/03/25 03:01:24;;;;;;;149.50;59.83;;;3.50;99.90;;;;;;5111021;28;20024;-66
2021/03/25 03:04:09;;;;;;;138.90;56.67;;;3.50;99.90;;;;;;5110955;28;20028;-67
2021/03/25 03:06:41;;;;;;;163.27;61.28;;;3.50;99.90;;;;;;5109098;28;20409;-67
2021/03/25 03:09:11;;;;;;;134.57;58.08;;;3.50;99.90;;;;;;5110871;28;20039;-67
2021/03/25 03:11:42;;;;;;;132.88;55.97;;;3.50;99.90;;;;;;5110847;28;20088;-67
2021/03/25 03:14:13;;;;;;;131.63;57.05;;;3.50;99.90;;;;;;5110465;28;20106;-67
2021/03/25 03:16:47;;;;;;;143.07;60.10;;;3.40;99.90;;;;;;5110159;28;20019;-67
2021/03/25 03:19:22;;;;;;;159.07;61.70;;;3.40;99.90;;;;;;5096536;28;20016;-67
2021/03/25 03:21:56;;;;;;;153.45;63.00;;;3.50;99.90;;;;;;5097060;28;20039;-67
2021/03/25 03:24:22;;;;;;;156.90;63.38;;;3.50;99.90;;;;;;5097003;28;20377;-67
2021/03/25 03:26:57;;;;;;;150.60;61.22;;;3.50;99.90;;;;;;5095334;28;20028;-67
2021/03/25 03:29:24;;;;;;;154.70;62.42;;;3.60;99.90;;;;;;5096917;28;20073;-67
2021/03/25 03:31:54;;;;;;;147.88;61.17;;;3.60;99.90;;;;;;5095465;28;20497;-67
2021/03/25 03:34:27;;;;;;;148.00;59.22;;;3.60;99.90;;;;;;5096812;28;20082;-67
2021/03/25 03:36:57;;;;;;;147.60;63.50;;;3.60;99.90;;;;;;5096264;28;20107;-67
2021/03/25 03:39:27;;;;;;;152.63;62.97;;;3.70;99.90;;;;;;5096749;28;20016;-67
2021/03/25 03:41:58;;;;;;;128.13;55.33;;;3.70;99.90;;;;;;5096077;28;20366;-67
2021/03/25 03:44:28;;;;;;;133.48;60.00;;;3.70;99.90;;;;;;5096074;28;20066;-67
2021/03/25 03:46:56;;;;;;;140.70;58.10;;;3.70;99.90;;;;;;5095919;28;20028;-67
2021/03/25 03:49:33;;;;;;;137.68;59.13;;;3.70;99.90;;;;;;5096459;28;20473;-67
2021/03/25 03:52:05;;;;;;;157.20;61.45;;;3.70;99.90;;;;;;5095870;28;20070;-67
2021/03/25 03:54:31;;;;;;;148.52;61.63;;;3.60;99.90;;;;;;5096472;28;20050;-67
2021/03/25 03:57:37;;;;;;;147.88;58.58;;;3.70;99.90;;;;;;5096353;28;20516;-67
2021/03/25 04:00:21;;;;;;;134.65;56.15;;;3.70;99.90;;;;;;5095650;28;20032;-67
2021/03/25 04:03:09;;;;;;;142.15;58.80;;;3.70;99.90;;;;;;5095960;28;20511;-67
2021/03/25 04:05:42;;;;;;;145.15;58.83;;;3.70;99.90;;;;;;5095413;28;20361;-67
2021/03/25 04:08:27;;;;;;;142.70;59.10;;;3.70;99.90;;;;;;5096148;28;20484;-67
2021/03/25 04:11:04;;;;;;;140.23;57.60;;;3.70;99.90;;;;;;5095801;28;20024;-67
2021/03/25 04:13:37;;;;;;;134.20;57.85;;;3.70;99.90;;;;;;5095749;28;20415;-67
2021/03/25 04:16:02;;;;;;;143.65;60.03;;;3.60;99.90;;;;;;5095993;28;20480;-67
2021/03/25 04:18:53;;;;;;;144.73;59.67;;;3.70;99.90;;;;;;5094759;28;20070;-67
2021/03/25 04:21:22;;;;;;;148.50;60.83;;;3.70;99.90;;;;;;5094020;28;20020;-67
2021/03/25 04:23:50;;;;;;;150.18;60.47;;;3.70;99.90;;;;;;5095850;28;20365;-67
2021/03/25 04:26:25;;;;;;;143.13;58.40;;;3.80;99.90;;;;;;5095454;28;20362;-67
2021/03/25 04:29:10;;;;;;;145.85;57.70;;;3.80;99.90;;;;;;5094876;28;20156;-67
2021/03/25 04:31:35;;;;;;;138.80;58.13;;;3.80;99.90;;;;;;5095674;28;20049;-67
2021/03/25 04:34:03;;;;;;;140.05;57.78;;;3.80;99.90;;;;;;5095065;28;20027;-68
2021/03/25 04:36:33;;;;;;;145.13;57.97;;;3.80;99.90;;;;;;5095586;28;20023;-67
2021/03/25 04:39:02;;;;;;;139.80;58.05;;;3.80;99.90;;;;;;5095529;28;20028;-68
2021/03/25 04:41:30;;;;;;;141.27;58.33;;;3.90;99.90;;;;;;5095486;28;20020;-67
2021/03/25 04:44:00;;;;;;;133.57;57.65;;;3.90;99.90;;;;;;5095187;28;20035;-67
2021/03/25 04:46:49;;;;;;;141.40;56.97;;;3.90;99.90;;;;;;5094747;28;20016;-67
2021/03/25 04:49:37;;;;;;;145.30;57.92;;;4.00;99.90;;;;;;5095296;28;20020;-67
2021/03/25 04:52:08;;;;;;;130.32;55.55;;;3.90;99.90;;;;;;5094751;28;20054;-67
2021/03/25 04:54:39;;;;;;;134.55;56.58;;;3.90;99.90;;;;;;5094121;28;20020;-67
2021/03/25 04:57:27;;;;;;;138.45;56.65;;;3.90;99.90;;;;;;5094948;28;20023;-67
2021/03/25 04:59:55;;;;;;;151.75;58.95;;;4.00;99.90;;;;;;5094526;28;20020;-67
2021/03/25 05:02:21;;;;;;;139.68;57.88;;;4.00;99.90;;;;;;5094817;28;20024;-67
2021/03/25 05:04:51;;;;;;;137.55;58.33;;;4.00;99.90;;;;;;5094738;28;20032;-67
2021/03/25 05:07:24;;;;;;;142.27;58.20;;;4.00;99.90;;;;;;5093797;28;20163;-67
2021/03/25 05:09:52;;;;;;;137.55;58.50;;;4.00;99.90;;;;;;5094424;28;20468;-67
2021/03/25 05:12:18;;;;;;;133.23;56.47;;;4.10;99.90;;;;;;5094942;28;20024;-67
2021/03/25 05:14:47;;;;;;;130.93;57.08;;;4.10;99.90;;;;;;5094887;28;20020;-67
2021/03/25 05:17:33;;;;;;;139.15;58.03;;;4.00;99.90;;;;;;5094872;28;20472;-67
2021/03/25 05:20:10;;;;;;;131.13;56.22;;;4.10;99.90;;;;;;5094806;28;20461;-67
2021/03/25 05:22:45;;;;;;;131.27;55.63;;;4.10;99.90;;;;;;5094442;28;20020;-67
2021/03/25 05:25:22;;;;;;;125.57;56.85;;;4.10;99.90;;;;;;5094722;28;20362;-67
2021/03/25 05:27:59;;;;;;;144.02;57.35;;;4.10;99.90;;;;;;5094083;28;20020;-67
2021/03/25 05:30:30;;;;;;;137.00;56.50;;;4.20;99.90;;;;;;5094617;28;20020;-67
2021/03/25 05:33:01;;;;;;;131.88;57.10;;;4.20;99.90;;;;;;5094587;28;20106;-67
2021/03/25 05:35:34;;;;;;;140.88;58.20;;;4.20;99.90;;;;;;5094504;28;20065;-67
2021/03/25 05:38:01;;;;;;;144.82;59.83;;;4.20;99.90;;;;;;5093076;28;20461;-67
2021/03/25 05:40:34;;;;;;;141.93;60.05;;;4.20;99.90;;;;;;5093907;28;20060;-67
2021/03/25 05:43:39;;;;;;;129.38;56.17;;;4.30;99.90;;;;;;5093891;28;20024;-67
2021/03/25 05:46:32;;;;;;;140.88;58.53;;;4.30;99.90;;;;;;5093629;28;20032;-67
2021/03/25 05:49:37;;;;;;;130.85;56.40;;;4.30;99.90;;;;;;5092836;28;20020;-67
2021/03/25 05:52:28;;;;;;;130.65;55.50;;;4.40;99.90;;;;;;5093699;28;20020;-67
2021/03/25 05:55:09;;;;;;;135.77;59.85;;;4.40;99.90;;;;;;5093640;28;20103;-67
2021/03/25 05:57:44;;;;;;;134.23;58.53;;;4.40;99.90;;;;;;5093952;28;20386;-67
2021/03/25 06:00:18;;;;;;;140.50;60.85;;;4.50;99.90;;;;;;5093955;28;20407;-67
2021/03/25 06:02:52;;;;;;;135.18;59.60;;;4.60;99.90;;;;;;5094232;28;20111;-67
2021/03/25 06:05:18;;;;;;;131.88;56.42;;;4.60;99.90;;;;;;5092431;28;20047;-67
2021/03/25 06:08:04;;;;;;;129.88;56.20;;;4.70;99.90;;;;;;5093421;28;20040;-67
2021/03/25 06:11:01;;;;;;;135.77;59.90;;;4.70;99.90;;;;;;5094124;28;20468;-67
2021/03/25 06:13:56;;;;;;;135.15;58.10;;;4.80;99.90;;;;;;5093475;28;20035;-67
2021/03/25 06:16:53;;;;;;;137.88;60.28;;;4.80;99.90;;;;;;5093455;28;20024;-67
2021/03/25 06:19:43;;;;;;;133.55;63.10;;;4.90;99.90;;;;;;5093458;28;20081;-67
2021/03/25 06:22:19;;;;;;;138.38;65.20;;;4.90;99.90;;;;;;5092915;28;20024;-67
2021/03/25 06:25:17;;;;;;;169.80;76.68;;;5.00;99.90;;;;;;5092186;28;20028;-67
2021/03/25 06:28:12;;;;;;;153.70;70.38;;;5.10;99.90;;;;;;5093388;28;20016;-67
2021/03/25 06:30:43;;;;;;;157.48;72.30;;;5.20;99.90;;;;;;5093940;28;20377;-67
2021/03/25 06:33:19;;;;;;;143.13;64.30;;;5.30;99.90;;;;;;5093908;28;20062;-67
2021/03/25 06:35:49;;;;;;;140.65;65.28;;;5.40;99.90;;;;;;5093343;28;20042;-67
2021/03/25 06:38:24;;;;;;;137.57;61.72;;;5.60;99.90;;;;;;5075164;28;20025;-67
2021/03/25 06:41:15;;;;;;;126.68;56.28;;;5.70;99.90;;;;;;5093465;28;20020;-67
2021/03/25 06:44:05;;;;;;;121.50;53.47;;;5.70;99.90;;;;;;5093697;28;20027;-67
2021/03/25 06:46:38;;;;;;;125.90;51.75;;;5.90;99.90;;;;;;5093026;28;20036;-67
2021/03/25 06:49:15;;;;;;;122.93;52.63;;;6.00;99.90;;;;;;5093750;28;20043;-67
2021/03/25 06:51:42;;;;;;;123.20;53.58;;;6.10;99.90;;;;;;5093676;28;20365;-67
2021/03/25 06:54:13;;;;;;;115.95;53.28;;;6.30;99.90;;;;;;5095344;28;20056;-67
2021/03/25 06:56:43;;;;;;;122.47;51.70;;;6.50;99.90;;;;;;5097525;28;20020;-67
2021/03/25 06:59:17;;;;;;;117.25;54.92;;;6.60;99.90;;;;;;5097400;28;20430;-67
2021/03/25 07:01:45;;;;;;;111.45;52.67;;;6.70;99.90;;;;;;5097164;28;20461;-67
2021/03/25 07:04:27;;;;;;;119.95;54.90;;;6.70;99.90;;;;;;5096231;28;20052;-67
2021/03/25 07:06:57;;;;;;;117.70;53.63;;;6.80;99.90;;;;;;5096496;28;20039;-67
2021/03/25 07:09:31;;;;;;;120.18;54.60;;;6.90;99.90;;;;;;5085738;28;20012;-67
2021/03/25 07:12:00;;;;;;;113.28;53.55;;;7.00;99.90;;;;;;5085261;28;20469;-67
2021/03/25 07:14:36;;;;;;;110.85;52.03;;;7.10;99.90;;;;;;5095343;28;20082;-67
2021/03/25 07:17:03;;;;;;;114.28;53.33;;;7.20;99.90;;;;;;5095254;28;20020;-66
2021/03/25 07:19:32;;;;;;;115.93;54.83;;;7.30;99.90;;;;;;5094979;28;20021;-67
2021/03/25 07:22:24;;;;;;;109.70;53.40;;;7.50;99.90;;;;;;5096383;28;20112;-68
2021/03/25 07:24:51;;;;;;;112.22;51.47;;;7.50;99.90;;;;;;5097006;28;20016;-68
2021/03/25 07:27:25;;;;;;;107.40;52.58;;;7.50;99.90;;;;;;5093898;28;20020;-68
2021/03/25 07:30:10;;;;;;;108.55;51.78;;;7.70;99.90;;;;;;5085149;28;20111;-68
2021/03/25 07:32:49;;;;;;;107.00;51.05;;;8.20;99.90;;;;;;5078083;28;20075;-68
2021/03/25 07:35:36;;;;;;;110.93;52.72;;;8.40;99.90;;;;;;5110114;28;20020;-68
2021/03/25 07:38:19;;;;;;;114.65;55.90;;;8.30;99.90;;;;;;5114983;28;20077;-68
2021/03/25 07:40:45;;;;;;;117.55;56.28;;;8.50;99.90;;;;;;5088648;28;20016;-68
2021/03/25 07:43:17;;;;;;;118.80;57.42;;;8.80;99.90;;;;;;5094205;28;20039;-68
2021/03/25 07:45:43;;;;;;;116.65;57.95;;;9.10;99.90;;;;;;5094162;28;20065;-68
2021/03/25 07:48:22;;;;;;;114.93;57.15;;;9.20;99.90;;;;;;5075886;28;20447;-67
2021/03/25 07:50:49;;;;;;;115.57;57.08;;;9.30;99.90;;;;;;5080641;28;20012;-67
2021/03/25 07:53:24;;;;;;;119.50;57.25;;;9.60;99.90;;;;;;5074255;28;20133;-68
2021/03/25 07:56:00;;;;;;;122.53;58.22;;;9.60;99.90;;;;;;5092623;28;20059;-68
2021/03/25 07:58:37;;;;;;;115.65;57.72;;;9.80;99.90;;;;;;5094171;28;20089;-68
2021/03/25 08:01:13;;;;;;;112.03;56.65;;;10.00;99.90;;;;;;5082262;28;20528;-68
2021/03/25 08:03:47;;;;;;;121.70;59.25;;;10.30;99.90;;;;;;5074597;28;20427;-68
2021/03/25 08:06:21;;;;;;;111.63;57.83;;;10.30;99.90;;;;;;5074198;28;20044;-68
2021/03/25 08:08:59;;;;;;;114.25;56.92;;;10.20;99.90;;;;;;5093798;28;20039;-68
2021/03/25 08:11:25;;;;;;;117.60;59.33;;;10.30;99.90;;;;;;5094429;28;20016;-68
2021/03/25 08:13:55;;;;;;;116.28;58.13;;;10.30;99.90;;;;;;5073680;28;20385;-68
2021/03/25 08:16:22;;;;;;;117.03;59.95;;;10.40;99.90;;;;;;5080703;28;20046;-68
2021/03/25 08:19:21;;;;;;;114.32;58.58;;;10.60;99.90;;;;;;5091416;28;20024;-68
2021/03/25 08:22:14;;;;;;;121.78;60.20;;;10.50;99.90;;;;;;5079453;28;20028;-68
2021/03/25 08:25:17;;;;;;;122.57;61.10;;;10.40;99.90;;;;;;5104273;28;20103;-68
2021/03/25 08:28:22;;;;;;;120.03;60.58;;;10.50;99.90;;;;;;5091981;28;20495;-68
2021/03/25 08:31:04;;;;;;;118.80;59.10;;;10.40;99.90;;;;;;5073497;28;20062;-67
2021/03/25 08:33:51;;;;;;;118.20;59.53;;;10.60;99.90;;;;;;5088907;28;20111;-68
2021/03/25 08:36:24;;;;;;;122.55;59.75;;;10.80;99.90;;;;;;5090680;28;20123;-68
2021/03/25 08:39:30;;;;;;;124.97;62.30;;;10.70;99.90;;;;;;5072852;28;20025;-68
2021/03/25 08:42:35;;;;;;;122.68;61.80;;;10.70;99.90;;;;;;5081006;28;20028;-68
2021/03/25 08:45:12;;;;;;;122.68;58.50;;;10.80;99.90;;;;;;5082019;28;20078;-67
2021/03/25 08:48:17;;;;;;;116.13;60.17;;;11.00;99.90;;;;;;5070440;28;20082;-67
2021/03/25 08:50:57;;;;;;;118.32;61.40;;;10.90;99.90;;;;;;5086237;28;20118;-68
2021/03/25 08:53:46;;;;;;;131.15;62.63;;;10.90;99.90;;;;;;5088104;28;20095;-67
2021/03/25 08:56:35;;;;;;;115.90;60.15;;;11.00;99.90;;;;;;5089936;28;20081;-68
2021/03/25 08:59:11;;;;;;;122.63;59.38;;;11.30;99.90;;;;;;5095322;28;20043;-67
2021/03/25 09:01:43;;;;;;;135.80;62.30;;;11.20;99.90;;;;;;5073198;28;20036;-68
2021/03/25 09:04:11;;;;;;;124.43;63.70;;;11.30;99.90;;;;;;5095477;28;20021;-68
2021/03/25 09:06:40;;;;;;;127.45;63.55;;;11.40;99.90;;;;;;5085048;28;20684;-68
2021/03/25 09:09:34;;;;;;;130.48;63.45;;;11.30;99.90;;;;;;5091402;28;20111;-66
2021/03/25 09:12:08;;;;;;;121.55;64.68;;;11.50;99.90;;;;;;5090993;28;20031;-68
2021/03/25 09:14:33;;;;;;;;;;;11.60;99.90;;;;;;5093831;28;20480;-66
2021/03/25 09:17:02;;;;;;;127.95;64.38;;;11.90;99.90;;;;;;5080379;28;19908;-68
2021/03/25 09:19:31;;;;;;;128.63;65.75;;;12.20;99.90;;;;;;5072294;28;20024;-66
2021/03/25 09:21:59;;;;;;;120.78;64.63;;;12.40;99.90;;;;;;5081187;28;20036;-68
2021/03/25 09:24:25;;;;;;;121.07;63.30;;;12.60;99.90;;;;;;5093626;28;20520;-66
2021/03/25 09:27:03;;;;;;;124.82;64.32;;;12.50;99.90;;;;;;5093594;28;20115;-66
2021/03/25 09:29:32;;;;;;;119.25;64.10;;;12.70;99.90;;;;;;5064180;28;20028;-66
2021/03/25 09:34:51;;;;;;;116.30;62.60;;;12.80;99.90;;;;;;5110599;27;20359;-66
2021/03/25 09:37:28;;;;;;;118.07;64.65;;;12.70;99.90;;;;;;5111131;28;20026;-67
2021/03/25 09:46:26;;;;;;;111.90;59.80;;;12.80;99.90;;;;;;5087039;28;20367;-68
2021/03/25 09:48:55;;;;;;;131.40;63.53;;;13.00;99.90;;;;;;5085794;28;20025;-66
2021/03/25 09:51:26;;;;;;;109.22;61.42;;;13.10;99.90;;;;;;5069166;28;20134;-68
2021/03/25 09:53:57;;;;;;;123.97;63.05;;;13.30;99.90;;;;;;5070057;28;20523;-68
2021/03/25 09:59:03;;;;;;;113.32;62.08;;;13.50;99.90;;;;;;5090675;27;20398;-67
2021/03/25 10:01:52;;;;;;;116.80;61.78;;;13.90;99.90;;;;;;5085885;28;20021;-67
2021/03/25 10:09:58;;;;;;;111.35;59.22;;;13.40;99.90;;;;;;5110820;27;20397;-68
2021/03/25 10:12:45;;;;;;;107.15;58.03;;;13.20;99.90;;;;;;5109783;28;20026;-68
2021/03/25 10:15:34;;;;;;;109.43;57.20;;;13.50;99.90;;;;;;5110784;28;20024;-68
2021/03/25 10:18:04;;;;;;;105.55;58.08;;;13.70;99.90;;;;;;5108910;28;20081;-68
2021/03/25 10:20:49;;;;;;;81.80;46.65;;;13.80;99.90;;;;;;5110238;28;20030;-68
2021/03/25 10:23:26;;;;;;;96.15;52.22;;;14.00;99.90;;;;;;5106425;28;20024;-68
2021/03/25 10:26:05;;;;;;;95.20;51.53;;;14.00;99.90;;;;;;5109155;28;20092;-68
2021/03/25 10:28:36;;;;;;;97.70;51.30;;;13.70;99.90;;;;;;5109308;28;20056;-68
2021/03/25 10:31:15;;;;;;;90.97;50.05;;;13.30;99.90;;;;;;5110783;28;20024;-68
2021/03/25 10:33:42;;;;;;;90.88;48.40;;;13.20;99.90;;;;;;5103403;28;20027;-68
2021/03/25 10:36:16;;;;;;;85.47;44.65;;;13.30;99.90;;;;;;5105343;28;20115;-68
2021/03/25 10:38:49;;;;;;;85.88;44.65;;;13.40;99.90;;;;;;5105527;28;20067;-68
2021/03/25 10:41:20;;;;;;;97.60;47.85;;;13.60;99.90;;;;;;5089876;28;20453;-68
2021/03/25 10:43:49;;;;;;;84.80;45.88;;;13.70;99.90;;;;;;5087590;28;20035;-68
2021/03/25 10:46:35;;;;;;;74.78;41.40;;;13.80;99.90;;;;;;5105873;28;20085;-68
2021/03/25 10:49:06;;;;;;;81.07;42.35;;;14.30;99.90;;;;;;5102516;28;20020;-68
2021/03/25 10:51:38;;;;;;;70.00;38.05;;;15.20;99.90;;;;;;5088791;28;20029;-68
2021/03/25 10:54:22;;;;;;;75.28;41.38;;;16.00;99.90;;;;;;5105555;28;20392;-68
2021/03/25 10:56:54;;;;;;;71.43;41.00;;;16.40;99.90;;;;;;5105764;28;20020;-68
2021/03/25 10:59:22;;;;;;;71.63;43.08;;;16.80;99.90;;;;;;5089218;28;20365;-69
2021/03/25 11:01:52;;;;;;;77.38;45.13;;;17.30;99.90;;;;;;5090743;28;20081;-68
2021/03/25 11:04:22;;;;;;;69.85;41.85;;;17.60;99.90;;;;;;5105443;28;20115;-68
2021/03/25 11:06:49;;;;;;;74.43;42.92;;;17.90;99.90;;;;;;5099382;28;20373;-68
2021/03/25 11:09:30;;;;;;;84.03;47.22;;;17.60;99.90;;;;;;5104126;28;20353;-68
2021/03/25 11:12:12;;;;;;;77.30;46.47;;;17.40;99.90;;;;;;5108574;28;20027;-68
2021/03/25 11:15:05;;;;;;;80.15;45.15;;;16.90;99.90;;;;;;5108044;28;20035;-68
2021/03/25 11:17:36;;;;;;;73.40;44.67;;;16.90;99.90;;;;;;5107577;28;20147;-68
2021/03/25 11:20:06;;;;;;;74.75;43.60;;;16.80;99.90;;;;;;5101789;28;20469;-68
2021/03/25 11:22:34;;;;;;;73.25;44.85;;;16.40;99.90;;;;;;5091532;28;20174;-68
2021/03/25 11:25:02;;;;;;;78.47;44.97;;;16.00;99.90;;;;;;5092588;28;20028;-68
2021/03/25 11:27:29;;;;;;;85.07;47.42;;;16.20;99.90;;;;;;5083882;28;20028;-68
2021/03/25 11:30:02;;;;;;;82.63;45.60;;;15.90;99.90;;;;;;5081694;28;20023;-68
2021/03/25 11:32:37;;;;;;;81.25;47.33;;;15.90;99.90;;;;;;5088903;28;20028;-68
2021/03/25 11:35:26;;;;;;;87.32;50.90;;;16.00;99.90;;;;;;5094546;28;20032;-68
2021/03/25 11:37:53;;;;;;;89.07;51.78;;;15.90;99.90;;;;;;5092626;28;20376;-68
2021/03/25 11:40:42;;;;;;;96.60;51.33;;;15.90;99.90;;;;;;5095523;28;20020;-68
2021/03/25 11:43:11;;;;;;;84.68;50.00;;;16.20;99.90;;;;;;5079282;28;20349;-68
2021/03/25 11:45:46;;;;;;;89.40;49.95;;;16.70;99.90;;;;;;5075632;28;20112;-69
2021/03/25 11:48:25;;;;;;;85.50;48.83;;;17.00;99.90;;;;;;5076421;28;20024;-69
2021/03/25 11:50:53;;;;;;;95.80;49.40;;;16.90;99.90;;;;;;5074077;28;20017;-69
2021/03/25 11:53:32;;;;;;;87.88;48.15;;;16.80;99.90;;;;;;5093532;28;20019;-69
2021/03/25 11:55:58;;;;;;;88.10;49.67;;;16.40;99.90;;;;;;5077355;28;20031;-68
2021/03/25 11:58:24;;;;;;;86.88;49.47;;;16.70;99.90;;;;;;5093711;28;20032;-68
2021/03/25 12:00:57;;;;;;;84.32;48.22;;;16.80;99.90;;;;;;5084177;28;20036;-68
2021/03/25 12:03:26;;;;;;;84.43;47.60;;;16.70;99.90;;;;;;5075010;28;20051;-68
2021/03/25 12:05:52;;;;;;;88.13;48.17;;;16.80;99.90;;;;;;5075130;28;20141;-69
2021/03/25 12:08:23;;;;;;;89.72;49.92;;;16.80;99.90;;;;;;5073470;28;20509;-69
2021/03/25 12:10:58;;;;;;;88.50;50.22;;;16.60;99.90;;;;;;5078516;28;20056;-69
2021/03/25 12:13:24;;;;;;;93.43;50.08;;;16.60;99.90;;;;;;5087359;28;20023;-69
2021/03/25 12:15:50;;;;;;;90.40;49.15;;;16.50;99.90;;;;;;5085993;28;20013;-68
2021/03/25 12:18:27;;;;;;;94.38;51.55;;;16.40;99.90;;;;;;5082298;28;20478;-68
2021/03/25 12:20:57;;;;;;;88.57;50.17;;;16.30;99.90;;;;;;5108500;28;20066;-68
2021/03/25 12:23:32;;;;;;;95.35;51.05;;;16.50;99.90;;;;;;5092045;28;20063;-69
2021/03/25 12:26:01;;;;;;;89.93;51.53;;;16.60;99.90;;;;;;5085493;28;20252;-68
2021/03/25 12:28:27;;;;;;;90.30;50.58;;;16.70;99.90;;;;;;5089539;28;20031;-68
2021/03/25 12:30:54;;;;;;;96.18;52.83;;;16.60;99.90;;;;;;5083675;28;20032;-68
2021/03/25 12:33:26;;;;;;;99.25;54.55;;;16.50;99.90;;;;;;5078717;28;20096;-68
2021/03/25 12:35:53;;;;;;;93.82;54.85;;;16.50;99.90;;;;;;5092343;28;20133;-68
2021/03/25 12:38:20;;;;;;;95.95;55.17;;;16.80;99.90;;;;;;5079332;28;20032;-68
2021/03/25 12:40:46;;;;;;;96.55;54.13;;;16.60;99.90;;;;;;5085440;28;20023;-68
2021/03/25 12:43:17;;;;;;;96.28;55.30;;;16.20;99.90;;;;;;5079153;28;20024;-68
2021/03/25 12:45:49;;;;;;;92.82;52.88;;;16.30;99.90;;;;;;5090615;28;20032;-68
2021/03/25 12:48:16;;;;;;;91.65;54.58;;;16.20;99.90;;;;;;5094204;28;20063;-68
2021/03/25 12:50:42;;;;;;;93.35;52.72;;;16.00;99.90;;;;;;5074525;28;20434;-68
2021/03/25 12:53:07;;;;;;;86.20;53.08;;;16.20;99.90;;;;;;5073957;28;20068;-68
2021/03/25 12:55:33;;;;;;;92.55;49.72;;;16.70;99.90;;;;;;5091245;28;20028;-68
2021/03/25 12:57:59;;;;;;;90.38;49.92;;;16.80;99.90;;;;;;5088478;28;20107;-68
2021/03/25 13:00:34;;;;;;;91.22;50.97;;;16.60;99.90;;;;;;5072534;28;20036;-68
2021/03/25 13:02:59;;;;;;;92.50;48.85;;;16.20;99.90;;;;;;5077195;28;20016;-68
2021/03/25 13:05:25;;;;;;;89.63;49.10;;;16.30;99.90;;;;;;5093690;28;20047;-68
2021/03/25 13:07:51;;;;;;;96.82;51.47;;;16.10;99.90;;;;;;5085760;28;20113;-68
2021/03/25 13:10:20;;;;;;;94.35;50.95;;;16.10;99.90;;;;;;5085986;28;20020;-68
2021/03/25 13:12:46;;;;;;;90.07;49.28;;;15.90;99.90;;;;;;5093851;28;20026;-69
2021/03/25 13:15:12;;;;;;;88.68;49.50;;;16.00;99.90;;;;;;5085856;28;20024;-68
2021/03/25 13:17:38;;;;;;;89.75;50.30;;;15.70;99.90;;;;;;5073571;28;20016;-68
2021/03/25 13:20:06;;;;;;;92.43;49.67;;;15.60;99.90;;;;;;5073965;28;20028;-68
2021/03/25 13:22:32;;;;;;;88.40;49.40;;;15.70;99.90;;;;;;5090716;28;20017;-68
2021/03/25 13:24:58;;;;;;;84.30;48.17;;;15.80;99.90;;;;;;5080436;28;20044;-68
2021/03/25 13:27:23;;;;;;;92.07;50.05;;;15.80;99.90;;;;;;5093127;28;20384;-68